createdAt,value
2019-03-18T00:01:36.006Z,100119.64
2019-03-18T00:06:39.515Z,100128.59
2019-03-18T00:11:42.976Z,100136.41
2019-03-18T00:16:46.472Z,100130.85
2019-03-18T00:21:49.890Z,100129.13
2019-03-18T00:26:53.468Z,100136.02
2019-03-18T00:31:56.893Z,100132.94
2019-03-18T00:37:00.341Z,100143.32
2019-03-18T00:42:03.885Z,100151.49
2019-03-18T00:47:07.309Z,100154.03
2019-03-18T00:52:10.736Z,100160.91
2019-03-18T00:57:14.140Z,100159.19
2019-03-18T01:02:17.642Z,100170.38
2019-03-18T01:07:21.119Z,100144.61
2019-03-18T01:12:24.533Z,100142.82
2019-03-18T01:17:27.959Z,100151.84
2019-03-18T01:22:31.385Z,100150.52
2019-03-18T01:27:34.804Z,100154.86
2019-03-18T01:32:38.217Z,100160.02
2019-03-18T01:37:41.651Z,100166.08
2019-03-18T01:42:45.154Z,100157.87
2019-03-18T01:47:48.547Z,100157.87
2019-03-18T01:52:51.974Z,100160.91
2019-03-18T01:57:55.470Z,100163.53
2019-03-18T02:02:58.933Z,100160.05
2019-03-18T02:08:02.441Z,100162.64
2019-03-18T02:13:05.856Z,100159.20
2019-03-18T02:18:09.286Z,100148.52
2019-03-18T02:23:12.775Z,100143.81
2019-03-18T02:28:16.164Z,100152.78
2019-03-18T02:33:19.590Z,100154.97
2019-03-18T02:38:23.043Z,100149.37
2019-03-18T02:43:26.464Z,100150.70
2019-03-18T02:48:29.879Z,100155.39
2019-03-18T02:53:33.352Z,100170.09
2019-03-18T02:58:36.792Z,100173.09
2019-03-18T03:03:40.230Z,100177.86
2019-03-18T03:08:43.880Z,100177.86
2019-03-18T03:13:47.312Z,100188.19
2019-03-18T03:18:51.001Z,100185.17
2019-03-18T03:23:54.431Z,100203.17
2019-03-18T03:28:57.851Z,100211.80
2019-03-18T03:34:01.303Z,100208.76
2019-03-18T03:39:06.582Z,100213.92
2019-03-18T03:44:12.085Z,100212.67
2019-03-18T03:49:15.518Z,100215.28
2019-03-18T03:54:19.662Z,100216.08
2019-03-18T03:59:23.349Z,100228.62
2019-03-18T04:04:26.773Z,100233.31
2019-03-18T04:09:30.225Z,100241.48
2019-03-18T04:14:33.657Z,100249.27
2019-03-18T04:19:37.107Z,100255.30
2019-03-18T04:24:40.537Z,100260.03
2019-03-18T04:29:44.000Z,100267.77
2019-03-18T04:34:47.442Z,100262.61
2019-03-18T04:39:50.896Z,100266.52
2019-03-18T04:44:54.326Z,100266.95
2019-03-18T04:49:57.770Z,100282.40
2019-03-18T04:55:01.234Z,100283.25
2019-03-18T05:00:08.102Z,100290.09
2019-03-18T05:05:11.624Z,100295.73
2019-03-18T05:10:15.067Z,100299.17
2019-03-18T05:15:18.518Z,100314.62
2019-03-18T05:20:21.966Z,100322.31
2019-03-18T05:25:25.429Z,100329.63
2019-03-18T05:30:28.880Z,100334.34
2019-03-18T05:35:32.322Z,100334.83
2019-03-18T05:40:35.775Z,100347.25
2019-03-18T05:45:39.231Z,100354.56
2019-03-18T05:50:42.653Z,100365.75
2019-03-18T05:55:46.116Z,100370.81
2019-03-18T06:00:49.826Z,100380.27
2019-03-18T06:05:53.257Z,100380.30
2019-03-18T06:10:56.767Z,100400.52
2019-03-18T06:16:00.193Z,100404.02
2019-03-18T06:21:03.634Z,100413.92
2019-03-18T06:26:07.053Z,100420.91
2019-03-18T06:31:10.567Z,100427.36
2019-03-18T06:36:14.004Z,100431.24
2019-03-18T06:41:17.433Z,100448.93
2019-03-18T06:46:20.865Z,100452.00
2019-03-18T06:51:24.309Z,100462.33
2019-03-18T06:56:27.829Z,100466.33
2019-03-18T07:01:31.295Z,100475.90
2019-03-18T07:06:34.720Z,100488.44
2019-03-18T07:11:38.195Z,100497.05
2019-03-18T07:16:41.629Z,100490.73
2019-03-18T07:21:47.347Z,100511.41
2019-03-18T07:26:50.788Z,100516.23
2019-03-18T07:31:54.229Z,100523.61
2019-03-18T07:36:57.708Z,100530.46
2019-03-18T07:42:01.191Z,100533.19
2019-03-18T07:47:04.623Z,100548.00
2019-03-18T07:52:08.116Z,100557.55
2019-03-18T07:57:11.549Z,100559.75
2019-03-18T08:02:14.969Z,100572.33
2019-03-18T08:07:18.409Z,100570.67
2019-03-18T08:12:21.854Z,100571.70
2019-03-18T08:17:25.277Z,100587.67
2019-03-18T08:22:28.704Z,100592.44
2019-03-18T08:27:32.134Z,100596.75
2019-03-18T08:32:35.545Z,100601.11
2019-03-18T08:37:39.025Z,100604.24
2019-03-18T08:42:42.465Z,100615.91
2019-03-18T08:47:45.898Z,100615.05
2019-03-18T08:52:49.335Z,100621.10
2019-03-18T08:57:52.797Z,100629.80
2019-03-18T09:02:56.537Z,100632.84
2019-03-18T09:08:00.006Z,100641.05
2019-03-18T09:13:03.436Z,100636.71
2019-03-18T09:18:07.090Z,100641.05
2019-03-18T09:23:10.526Z,100650.56
2019-03-18T09:28:13.995Z,100655.74
2019-03-18T09:33:17.409Z,100664.86
2019-03-18T09:38:20.842Z,100676.95
2019-03-18T09:43:24.272Z,100672.62
2019-03-18T09:48:27.717Z,100669.55
2019-03-18T09:53:31.221Z,100679.38
2019-03-18T09:58:34.675Z,100683.68
2019-03-18T10:03:38.103Z,100690.08
2019-03-18T10:08:41.525Z,100697.48
2019-03-18T10:13:44.980Z,100706.98
2019-03-18T10:18:48.428Z,100700.25
2019-03-18T10:23:51.858Z,100707.54
2019-03-18T10:28:55.634Z,100692.55
2019-03-18T10:33:59.040Z,100706.17
2019-03-18T10:39:02.461Z,100709.62
2019-03-18T10:44:05.915Z,100711.45
2019-03-18T10:49:09.349Z,100716.19
2019-03-18T10:54:13.194Z,100718.31
2019-03-18T10:59:16.568Z,100718.18
2019-03-18T11:04:20.009Z,100726.31
2019-03-18T11:09:23.460Z,100714.77
2019-03-18T11:14:26.873Z,100718.22
2019-03-18T11:19:30.352Z,100723.27
2019-03-18T11:24:33.808Z,100743.14
2019-03-18T11:29:37.295Z,100749.48
2019-03-18T11:34:40.715Z,100760.56
2019-03-18T11:39:44.129Z,100769.98
2019-03-18T11:44:47.548Z,100778.03
2019-03-18T11:49:50.963Z,100806.16
2019-03-18T11:54:54.390Z,100821.19
2019-03-18T11:59:57.815Z,100828.01
2019-03-18T12:05:01.227Z,100820.20
2019-03-18T12:10:07.358Z,100852.25
2019-03-18T12:15:13.319Z,100869.91
2019-03-18T12:20:24.189Z,100869.26
2019-03-18T12:25:22.286Z,100868.66
2019-03-18T12:30:29.271Z,100858.02
2019-03-18T12:35:32.707Z,100861.91
2019-03-18T12:40:36.139Z,100849.54
2019-03-18T12:45:39.647Z,100847.06
2019-03-18T12:50:55.880Z,100835.78
2019-03-18T12:55:48.199Z,100841.41
2019-03-18T13:00:51.612Z,100849.64
2019-03-18T13:05:55.038Z,100844.79
2019-03-18T13:10:58.572Z,100836.28
2019-03-18T13:16:02.043Z,100825.80
2019-03-18T13:21:08.075Z,100827.41
2019-03-18T13:26:10.603Z,100840.52
2019-03-18T13:31:14.048Z,100823.90
2019-03-18T13:36:17.472Z,100829.47
2019-03-18T13:41:20.922Z,100867.25
2019-03-18T13:46:24.440Z,100881.80
2019-03-18T13:51:27.853Z,100885.56
2019-03-18T13:56:31.267Z,100883.88
2019-03-18T14:01:34.701Z,100912.77
2019-03-18T14:06:38.858Z,100913.25
2019-03-18T14:11:42.286Z,100925.66
2019-03-18T14:16:45.711Z,100948.11
2019-03-18T14:21:49.122Z,100929.91
2019-03-18T14:26:52.705Z,100906.20
2019-03-18T14:31:56.241Z,100900.70
2019-03-18T14:36:59.684Z,100889.84
2019-03-18T14:42:03.113Z,100884.84
2019-03-18T14:47:06.555Z,100878.91
2019-03-18T14:52:09.983Z,100895.31
2019-03-18T14:57:13.432Z,100892.50
2019-03-18T15:02:16.862Z,100892.48
2019-03-18T15:07:20.322Z,100906.66
2019-03-18T15:12:23.753Z,100931.63
2019-03-18T15:17:27.163Z,100929.13
2019-03-18T15:22:30.583Z,100934.79
2019-03-18T15:27:34.006Z,100944.77
2019-03-18T15:32:37.452Z,100955.67
2019-03-18T15:37:40.980Z,100951.27
2019-03-18T15:42:44.423Z,100968.64
2019-03-18T15:47:47.821Z,100967.74
2019-03-18T15:52:51.247Z,100971.20
2019-03-18T15:57:54.666Z,100970.23
2019-03-18T16:02:58.102Z,100972.88
2019-03-18T16:08:01.605Z,100973.83
2019-03-18T16:13:05.211Z,100979.90
2019-03-18T16:18:08.643Z,100996.41
2019-03-18T16:23:12.084Z,101002.53
2019-03-18T16:28:15.538Z,101008.58
2019-03-18T16:33:18.989Z,101020.80
2019-03-18T16:38:22.473Z,101049.41
2019-03-18T16:43:25.897Z,101073.50
2019-03-18T16:48:29.378Z,101074.28
2019-03-18T16:53:32.805Z,101084.07
2019-03-18T16:58:36.215Z,101091.31
2019-03-18T17:03:39.646Z,101094.80
2019-03-18T17:08:43.074Z,101101.69
2019-03-18T17:13:46.490Z,101104.28
2019-03-18T17:18:49.916Z,101096.41
2019-03-18T17:23:53.439Z,101100.23
2019-03-18T17:28:56.881Z,101109.66
2019-03-18T17:34:00.440Z,101125.70
2019-03-18T17:39:05.379Z,101134.25
2019-03-18T17:44:09.780Z,101139.63
2019-03-18T17:49:13.289Z,101147.02
2019-03-18T17:54:16.767Z,101148.69
2019-03-18T17:59:20.304Z,101165.77
2019-03-18T18:04:23.711Z,101166.14
2019-03-18T18:09:27.158Z,101174.19
2019-03-18T18:14:30.599Z,101186.29
2019-03-18T18:19:34.047Z,101187.83
2019-03-18T18:24:37.557Z,101196.42
2019-03-18T18:29:41.078Z,101197.67
2019-03-18T18:34:44.521Z,101210.31
2019-03-18T18:39:47.987Z,101210.65
2019-03-18T18:44:51.409Z,101211.50
2019-03-18T18:49:54.853Z,101218.75
2019-03-18T18:54:58.267Z,101231.69
2019-03-18T19:00:01.697Z,101235.91
2019-03-18T19:05:08.562Z,101235.81
2019-03-18T19:10:17.253Z,101238.04
2019-03-18T19:15:35.031Z,101243.34
2019-03-18T19:20:38.484Z,101246.67
2019-03-18T19:25:41.904Z,101255.55
2019-03-18T19:30:45.346Z,101266.75
2019-03-18T19:41:22.207Z,101274.73
2019-03-18T19:46:25.606Z,101287.84
2019-03-18T19:51:29.059Z,101304.16
2019-03-18T19:57:30.506Z,101305.92
2019-03-18T20:03:11.846Z,101324.66
2019-03-18T20:08:15.281Z,101328.34
2019-03-18T20:13:18.871Z,101327.42
2019-03-18T20:18:22.456Z,101341.99
2019-03-18T20:23:25.863Z,101343.54
2019-03-18T20:28:29.273Z,101355.09
2019-03-18T20:33:32.766Z,101366.66
2019-03-18T20:38:36.124Z,101378.27
2019-03-18T20:43:39.607Z,101372.54
2019-03-18T20:48:43.144Z,101382.68
2019-03-18T20:53:46.605Z,101390.04
2019-03-18T20:58:50.170Z,101394.36
2019-03-18T21:03:53.606Z,101398.46
2019-03-18T21:08:57.085Z,101404.83
2019-03-18T21:14:00.594Z,101416.45
2019-03-18T21:19:04.950Z,101424.05
2019-03-18T21:24:08.468Z,101426.45
2019-03-18T21:29:11.985Z,101425.44
2019-03-18T21:34:15.601Z,101436.77
2019-03-18T21:39:19.079Z,101434.81
2019-03-18T21:44:22.492Z,101442.04
2019-03-18T21:49:25.944Z,101440.30
2019-03-18T21:54:34.189Z,101461.10
2019-03-18T21:59:34.536Z,101469.59
2019-03-18T22:04:37.975Z,101469.48
2019-03-18T22:09:41.765Z,101474.02
2019-03-18T22:14:45.226Z,101479.02
2019-03-18T22:19:48.746Z,101489.82
2019-03-18T22:24:52.814Z,101474.80
2019-03-18T22:29:56.794Z,101479.12
2019-03-18T22:35:00.346Z,101478.00
2019-03-18T22:40:25.179Z,101487.39
2019-03-18T22:45:28.643Z,101488.19
2019-03-18T22:50:32.073Z,101491.64
2019-03-18T22:55:35.554Z,101488.53
2019-03-18T23:00:46.403Z,101489.38
2019-03-18T23:05:50.134Z,101488.91
2019-03-18T23:10:53.670Z,101487.94
2019-03-18T23:15:57.100Z,101502.45
2019-03-18T23:21:00.692Z,101502.76
2019-03-18T23:26:04.282Z,101502.08
2019-03-18T23:31:07.789Z,101510.88
2019-03-18T23:36:11.236Z,101502.61
2019-03-18T23:41:15.555Z,101515.91
2019-03-18T23:46:19.176Z,101521.36
2019-03-18T23:51:22.761Z,101531.14
2019-03-18T23:56:26.266Z,101529.97
